createdAt,value
2022-12-03T00:01:31.142Z,8.07
2022-12-03T00:03:03.687Z,7.93
2022-12-03T00:04:39.097Z,8.50
2022-12-03T00:06:12.428Z,7.90
2022-12-03T00:07:45.735Z,9.55
2022-12-03T00:09:19.779Z,8.15
2022-12-03T00:10:53.389Z,7.80
2022-12-03T00:12:25.995Z,7.88
2022-12-03T00:13:59.472Z,7.43
2022-12-03T00:15:31.883Z,12.50
2022-12-03T00:17:05.659Z,8.05
2022-12-03T00:18:38.870Z,16.10
2022-12-03T00:20:19.046Z,13.57
2022-12-03T00:21:52.340Z,7.32
2022-12-03T00:23:26.076Z,8.07
2022-12-03T00:24:59.267Z,6.97
2022-12-03T00:26:33.397Z,7.65
2022-12-03T00:28:06.669Z,21.67
2022-12-03T00:29:40.017Z,8.57
2022-12-03T00:31:14.126Z,8.60
2022-12-03T00:32:47.628Z,11.40
2022-12-03T00:34:20.063Z,23.58
2022-12-03T00:35:57.332Z,15.93
2022-12-03T00:37:30.554Z,22.90
2022-12-03T00:39:03.872Z,13.65
2022-12-03T00:40:37.803Z,16.88
2022-12-03T00:42:11.224Z,13.63
2022-12-03T00:43:44.427Z,10.23
2022-12-03T00:45:18.779Z,7.30
2022-12-03T00:46:51.183Z,6.78
2022-12-03T00:48:24.774Z,7.63
2022-12-03T00:49:59.120Z,6.95
2022-12-03T00:51:34.382Z,6.78
2022-12-03T00:53:07.630Z,5.45
2022-12-03T00:54:41.069Z,6.40
2022-12-03T00:56:14.337Z,6.60
2022-12-03T00:57:47.671Z,6.57
2022-12-03T00:59:21.831Z,5.95
2022-12-03T01:00:54.136Z,6.90
2022-12-03T01:02:27.780Z,6.15
2022-12-03T01:04:00.550Z,5.55
2022-12-03T01:05:33.791Z,5.88
2022-12-03T01:07:08.717Z,5.13
2022-12-03T01:08:40.837Z,6.32
2022-12-03T01:10:15.086Z,6.65
2022-12-03T01:11:47.415Z,6.10
2022-12-03T01:13:20.947Z,7.50
2022-12-03T01:14:54.353Z,7.75
2022-12-03T01:16:28.065Z,6.22
2022-12-03T01:18:01.382Z,6.20
2022-12-03T01:19:35.446Z,5.68
2022-12-03T01:21:08.675Z,5.82
2022-12-03T01:22:43.567Z,6.75
2022-12-03T01:24:17.348Z,5.90
2022-12-03T01:25:50.739Z,5.82
2022-12-03T01:27:23.929Z,6.10
2022-12-03T01:28:57.437Z,5.90
2022-12-03T01:30:50.836Z,5.60
2022-12-03T01:32:23.371Z,5.38
2022-12-03T01:33:55.541Z,5.88
2022-12-03T01:35:28.737Z,5.13
2022-12-03T01:37:00.992Z,5.90
2022-12-03T01:38:35.720Z,5.60
2022-12-03T01:40:13.123Z,5.93
2022-12-03T01:41:46.503Z,6.07
2022-12-03T01:43:19.942Z,6.72
2022-12-03T01:44:54.903Z,6.28
2022-12-03T01:46:37.947Z,6.05
2022-12-03T01:48:15.677Z,8.75
2022-12-03T01:49:52.392Z,8.60
2022-12-03T01:51:24.578Z,8.27
2022-12-03T01:53:01.396Z,13.27
2022-12-03T01:54:40.118Z,9.55
2022-12-03T01:56:15.536Z,12.32
2022-12-03T01:57:51.627Z,13.13
2022-12-03T01:59:33.123Z,7.60
2022-12-03T02:01:13.243Z,6.80
2022-12-03T02:02:48.614Z,7.07
2022-12-03T02:04:24.261Z,7.97
2022-12-03T02:05:58.365Z,7.25
2022-12-03T02:07:34.043Z,7.50
2022-12-03T02:09:09.118Z,6.18
2022-12-03T02:10:43.881Z,5.82
2022-12-03T02:12:22.511Z,6.57
2022-12-03T02:13:59.839Z,7.05
2022-12-03T02:15:33.530Z,6.90
2022-12-03T02:17:06.678Z,6.35
2022-12-03T02:18:40.157Z,6.82
2022-12-03T02:20:15.532Z,6.22
2022-12-03T02:21:57.115Z,5.80
2022-12-03T02:23:37.373Z,6.30
2022-12-03T02:25:17.373Z,5.75
2022-12-03T02:26:50.798Z,5.70
2022-12-03T02:28:24.310Z,5.85
2022-12-03T02:29:58.371Z,6.82
2022-12-03T02:31:32.483Z,4.03
2022-12-03T02:33:06.244Z,5.90
2022-12-03T02:34:42.200Z,6.97
2022-12-03T02:36:16.019Z,7.90
2022-12-03T02:37:52.716Z,8.07
2022-12-03T02:39:25.434Z,10.02
2022-12-03T02:41:04.932Z,10.05
2022-12-03T02:42:37.751Z,13.88
2022-12-03T02:44:11.870Z,12.25
2022-12-03T02:45:48.934Z,13.00
2022-12-03T02:47:22.515Z,13.27
2022-12-03T02:48:56.404Z,12.40
2022-12-03T02:50:34.064Z,12.50
2022-12-03T02:52:07.695Z,11.85
2022-12-03T02:53:44.569Z,11.98
2022-12-03T02:55:19.007Z,12.63
2022-12-03T02:56:53.789Z,12.50
2022-12-03T02:58:28.690Z,12.38
2022-12-03T03:00:02.264Z,10.95
2022-12-03T03:01:35.698Z,10.93
2022-12-03T03:03:10.227Z,10.27
2022-12-03T03:04:43.598Z,10.93
2022-12-03T03:06:19.393Z,8.95
2022-12-03T03:07:52.974Z,9.05
2022-12-03T03:09:26.220Z,9.27
2022-12-03T03:11:01.523Z,9.63
2022-12-03T03:12:39.462Z,7.90
2022-12-03T03:14:13.095Z,7.70
2022-12-03T03:15:48.048Z,7.78
2022-12-03T03:17:24.674Z,7.40
2022-12-03T03:19:00.739Z,6.03
2022-12-03T03:20:34.135Z,4.20
2022-12-03T03:22:07.584Z,3.40
2022-12-03T03:23:40.939Z,5.18
2022-12-03T03:25:18.469Z,4.53
2022-12-03T03:26:52.205Z,3.40
2022-12-03T03:28:28.858Z,3.97
2022-12-03T03:30:02.839Z,3.95
2022-12-03T03:31:36.521Z,4.18
2022-12-03T03:33:11.090Z,10.10
2022-12-03T03:34:45.252Z,8.55
2022-12-03T03:36:19.322Z,5.88
2022-12-03T03:37:51.767Z,6.25
2022-12-03T03:39:25.340Z,5.95
2022-12-03T03:41:01.553Z,4.22
2022-12-03T03:42:35.921Z,4.95
2022-12-03T03:44:11.572Z,4.82
2022-12-03T03:45:45.820Z,5.03
2022-12-03T03:47:20.996Z,4.18
2022-12-03T03:48:54.329Z,5.53
2022-12-03T03:50:29.711Z,5.75
2022-12-03T03:52:04.409Z,5.28
2022-12-03T03:53:38.136Z,5.20
2022-12-03T03:55:12.540Z,3.95
2022-12-03T03:56:46.168Z,4.15
2022-12-03T03:58:19.676Z,4.60
2022-12-03T03:59:54.434Z,4.30
2022-12-03T04:01:29.794Z,5.18
2022-12-03T04:03:04.447Z,5.38
2022-12-03T04:04:38.313Z,5.40
2022-12-03T04:06:12.993Z,5.28
2022-12-03T04:07:46.752Z,4.82
2022-12-03T04:09:20.327Z,4.40
2022-12-03T04:11:11.246Z,3.95
2022-12-03T04:12:55.721Z,3.45
2022-12-03T04:14:29.171Z,4.57
2022-12-03T04:16:02.744Z,7.05
2022-12-03T04:17:36.104Z,12.07
2022-12-03T04:19:08.275Z,10.82
2022-12-03T04:20:41.683Z,9.35
2022-12-03T04:22:33.691Z,9.48
2022-12-03T04:24:08.298Z,7.10
2022-12-03T04:25:58.480Z,6.55
2022-12-03T04:27:49.150Z,5.72
2022-12-03T04:29:23.216Z,5.10
2022-12-03T04:30:55.456Z,5.07
2022-12-03T04:32:47.520Z,5.18
2022-12-03T04:34:38.880Z,5.78
2022-12-03T04:36:12.936Z,4.45
2022-12-03T04:37:46.172Z,5.72
2022-12-03T04:39:19.713Z,5.68
2022-12-03T04:41:03.915Z,6.00
2022-12-03T04:42:37.365Z,3.35
2022-12-03T04:44:31.615Z,4.32
2022-12-03T04:46:05.655Z,4.43
2022-12-03T04:47:40.429Z,4.18
2022-12-03T04:49:13.575Z,3.22
2022-12-03T04:50:46.897Z,3.40
2022-12-03T04:52:22.211Z,4.45
2022-12-03T04:53:54.398Z,4.80
2022-12-03T04:55:27.558Z,4.53
2022-12-03T04:57:01.932Z,3.85
2022-12-03T04:58:35.382Z,3.67
2022-12-03T05:00:09.906Z,3.22
2022-12-03T05:01:42.148Z,3.13
2022-12-03T05:03:16.798Z,2.92
2022-12-03T05:04:50.792Z,4.00
2022-12-03T05:06:23.225Z,3.35
2022-12-03T05:07:56.470Z,4.00
2022-12-03T05:09:29.952Z,4.53
2022-12-03T05:11:03.969Z,4.85
2022-12-03T05:12:37.408Z,4.80
2022-12-03T05:14:11.602Z,5.65
2022-12-03T05:15:45.012Z,4.88
2022-12-03T05:17:18.714Z,6.82
2022-12-03T05:18:52.289Z,5.22
2022-12-03T05:20:47.125Z,5.20
2022-12-03T05:22:23.278Z,4.82
2022-12-03T05:23:56.832Z,6.70
2022-12-03T05:25:29.321Z,7.13
2022-12-03T05:27:02.855Z,6.65
2022-12-03T05:28:36.273Z,7.20
2022-12-03T05:30:10.994Z,8.40
2022-12-03T05:31:44.420Z,7.68
2022-12-03T05:33:16.642Z,9.63
2022-12-03T05:34:51.616Z,12.50
2022-12-03T05:36:25.690Z,6.75
2022-12-03T05:37:58.898Z,6.13
2022-12-03T05:39:31.116Z,6.55
2022-12-03T05:41:24.549Z,11.07
2022-12-03T05:43:01.752Z,12.55
2022-12-03T05:44:33.952Z,19.17
2022-12-03T05:46:07.709Z,34.03
2022-12-03T05:47:40.040Z,24.88
2022-12-03T05:49:13.449Z,24.85
2022-12-03T05:50:48.241Z,27.63
2022-12-03T05:52:20.491Z,26.42
2022-12-03T05:53:53.865Z,29.00
2022-12-03T05:55:26.528Z,18.40
2022-12-03T05:56:59.829Z,18.58
2022-12-03T05:58:33.269Z,21.13
2022-12-03T06:00:08.825Z,16.02
2022-12-03T06:01:45.609Z,11.32
2022-12-03T06:03:19.067Z,10.23
2022-12-03T06:04:51.926Z,8.85
2022-12-03T06:06:27.907Z,8.27
2022-12-03T06:08:00.364Z,8.65
2022-12-03T06:09:34.555Z,9.43
2022-12-03T06:11:07.839Z,8.93
2022-12-03T06:12:41.514Z,8.75
2022-12-03T06:14:14.082Z,5.47
2022-12-03T06:15:47.360Z,6.43
2022-12-03T06:17:20.883Z,8.38
2022-12-03T06:18:54.658Z,8.93
2022-12-03T06:20:30.351Z,10.73
2022-12-03T06:22:04.586Z,11.63
2022-12-03T06:23:44.517Z,10.07
2022-12-03T06:25:18.369Z,11.07
2022-12-03T06:26:51.575Z,9.35
2022-12-03T06:28:25.007Z,7.20
2022-12-03T06:29:58.321Z,9.10
2022-12-03T06:31:31.541Z,15.52
2022-12-03T06:33:05.736Z,12.65
2022-12-03T06:34:39.680Z,8.23
2022-12-03T06:36:12.970Z,7.78
2022-12-03T06:37:47.582Z,8.90
2022-12-03T06:39:20.907Z,6.68
2022-12-03T06:40:54.153Z,6.68
2022-12-03T06:42:28.059Z,6.82
2022-12-03T06:44:01.457Z,6.80
2022-12-03T06:45:34.681Z,7.40
2022-12-03T06:47:07.964Z,9.85
2022-12-03T06:48:41.546Z,9.70
2022-12-03T06:50:15.235Z,9.63
2022-12-03T06:51:47.772Z,7.70
2022-12-03T06:53:22.452Z,9.65
2022-12-03T06:54:56.385Z,19.27
2022-12-03T06:56:35.875Z,7.40
2022-12-03T06:58:11.298Z,8.93
2022-12-03T06:59:44.906Z,12.55
2022-12-03T07:01:18.215Z,15.25
2022-12-03T07:02:51.544Z,7.18
2022-12-03T07:04:24.823Z,7.43
2022-12-03T07:05:58.048Z,9.07
2022-12-03T07:07:31.974Z,7.10
2022-12-03T07:09:06.599Z,8.00
2022-12-03T07:10:39.920Z,8.73
2022-12-03T07:12:13.316Z,10.68
2022-12-03T07:13:45.520Z,11.05
2022-12-03T07:15:19.334Z,11.23
2022-12-03T07:16:52.712Z,10.65
2022-12-03T07:18:25.067Z,10.77
2022-12-03T07:19:58.379Z,8.48
2022-12-03T07:21:31.891Z,11.13
2022-12-03T07:23:05.189Z,12.25
2022-12-03T07:24:39.939Z,9.43
2022-12-03T07:26:13.449Z,16.35
2022-12-03T07:27:47.012Z,26.83
2022-12-03T07:29:20.295Z,22.85
2022-12-03T07:30:53.567Z,28.50
2022-12-03T07:32:27.081Z,12.85
2022-12-03T07:34:00.574Z,10.90
2022-12-03T07:35:34.034Z,11.23
2022-12-03T07:37:07.767Z,7.72
2022-12-03T07:38:41.399Z,10.43
2022-12-03T07:40:16.397Z,16.27
2022-12-03T07:41:52.393Z,9.77
2022-12-03T07:43:24.611Z,9.52
2022-12-03T07:44:57.963Z,9.75
2022-12-03T07:46:31.299Z,8.85
2022-12-03T07:48:04.870Z,10.48
2022-12-03T07:49:38.194Z,10.38
2022-12-03T07:51:15.224Z,8.73
2022-12-03T07:52:48.807Z,10.30
2022-12-03T07:54:22.482Z,11.63
2022-12-03T07:55:57.367Z,8.95
2022-12-03T07:57:30.995Z,9.25
2022-12-03T07:59:04.167Z,9.02
2022-12-03T08:00:37.321Z,8.48
2022-12-03T08:02:10.743Z,8.35
2022-12-03T08:03:44.149Z,8.65
2022-12-03T08:05:17.719Z,7.32
2022-12-03T08:06:51.563Z,7.38
2022-12-03T08:08:24.915Z,8.80
2022-12-03T08:09:57.363Z,8.38
2022-12-03T08:11:33.674Z,9.88
2022-12-03T08:13:12.343Z,8.73
2022-12-03T08:14:45.738Z,8.80
2022-12-03T08:16:21.093Z,8.88
2022-12-03T08:17:56.528Z,8.40
2022-12-03T08:19:29.644Z,11.30
2022-12-03T08:21:03.405Z,11.02
2022-12-03T08:22:36.915Z,9.68
2022-12-03T08:24:16.144Z,8.43
2022-12-03T08:25:51.391Z,7.80
2022-12-03T08:27:26.116Z,11.93
2022-12-03T08:29:00.578Z,8.50
2022-12-03T08:30:33.821Z,8.70
2022-12-03T08:32:11.948Z,9.63
2022-12-03T08:33:45.438Z,11.73
2022-12-03T08:35:28.467Z,10.63
2022-12-03T08:37:07.517Z,10.75
2022-12-03T08:38:40.899Z,8.45
2022-12-03T08:40:24.283Z,7.85
2022-12-03T08:42:18.781Z,11.95
2022-12-03T08:43:53.558Z,13.00
2022-12-03T08:45:41.393Z,17.20
2022-12-03T08:47:21.246Z,9.27
2022-12-03T08:49:00.777Z,8.77
2022-12-03T08:50:39.566Z,5.78
2022-12-03T08:52:17.253Z,6.57
2022-12-03T08:53:58.132Z,6.60
2022-12-03T08:55:38.260Z,6.13
2022-12-03T08:57:26.099Z,5.75
2022-12-03T08:59:10.405Z,7.68
2022-12-03T09:00:44.580Z,5.15
2022-12-03T09:02:28.487Z,3.50
2022-12-03T09:04:21.489Z,4.00
2022-12-03T09:05:55.146Z,3.85
2022-12-03T09:07:28.668Z,4.63
2022-12-03T09:09:06.542Z,5.18
2022-12-03T09:10:40.175Z,5.95
2022-12-03T09:12:13.663Z,8.02
2022-12-03T09:13:48.165Z,7.15
2022-12-03T09:15:22.897Z,6.38
2022-12-03T09:16:57.734Z,6.45
2022-12-03T09:18:31.295Z,7.10
2022-12-03T09:20:08.647Z,9.23
2022-12-03T09:21:41.930Z,11.25
2022-12-03T09:23:15.336Z,21.38
2022-12-03T09:24:51.918Z,15.98
2022-12-03T09:26:25.439Z,12.50
2022-12-03T09:27:59.108Z,12.88
2022-12-03T09:29:32.768Z,13.13
2022-12-03T09:31:07.538Z,8.30
2022-12-03T09:32:43.157Z,11.13
2022-12-03T09:34:16.399Z,17.20
2022-12-03T09:35:49.898Z,9.77
2022-12-03T09:37:23.487Z,8.45
2022-12-03T09:38:57.025Z,13.57
2022-12-03T09:40:30.585Z,19.92
2022-12-03T09:42:05.056Z,13.85
2022-12-03T09:45:31.993Z,10.35
2022-12-03T09:47:07.989Z,13.85
2022-12-03T09:48:41.637Z,6.15
2022-12-03T09:50:16.297Z,7.13
2022-12-03T09:51:49.852Z,8.90
2022-12-03T09:53:28.156Z,7.85
2022-12-03T09:55:04.877Z,6.68
2022-12-03T09:56:39.373Z,7.20
2022-12-03T09:58:14.727Z,8.00
2022-12-03T09:59:48.963Z,11.90
2022-12-03T10:01:22.269Z,12.82
2022-12-03T10:03:00.266Z,11.18
2022-12-03T10:04:33.915Z,7.68
2022-12-03T10:06:08.270Z,8.27
2022-12-03T10:07:42.758Z,17.65
2022-12-03T10:09:20.955Z,11.48
2022-12-03T10:10:57.594Z,9.60
2022-12-03T10:12:31.492Z,8.43
2022-12-03T10:14:05.204Z,8.27
2022-12-03T10:15:38.546Z,6.80
2022-12-03T10:17:13.199Z,4.90
2022-12-03T10:18:51.371Z,4.60
2022-12-03T10:20:27.001Z,5.53
2022-12-03T10:22:00.602Z,10.00
2022-12-03T10:23:33.903Z,8.23
2022-12-03T10:25:10.324Z,8.35
2022-12-03T10:26:44.640Z,6.72
2022-12-03T10:28:29.262Z,7.80
2022-12-03T10:30:04.683Z,12.55
2022-12-03T10:31:38.643Z,10.48
2022-12-03T10:33:18.819Z,10.20
2022-12-03T10:35:09.323Z,11.77
2022-12-03T10:36:43.394Z,7.47
2022-12-03T10:38:22.339Z,9.43
2022-12-03T10:39:58.304Z,8.80
2022-12-03T10:41:31.560Z,10.80
2022-12-03T10:43:15.861Z,8.85
2022-12-03T10:44:49.175Z,7.82
2022-12-03T10:46:23.359Z,8.63
2022-12-03T10:48:15.741Z,10.07
2022-12-03T10:50:05.621Z,9.23
2022-12-03T10:51:40.529Z,17.77
2022-12-03T10:53:14.766Z,18.95
2022-12-03T10:54:48.603Z,10.57
2022-12-03T10:56:27.037Z,16.02
2022-12-03T10:58:02.423Z,17.60
2022-12-03T10:59:44.008Z,115.20
2022-12-03T11:01:19.124Z,32.63
2022-12-03T11:02:56.770Z,31.27
2022-12-03T11:04:34.766Z,47.72
2022-12-03T11:06:16.070Z,18.35
2022-12-03T11:07:50.182Z,11.63
2022-12-03T11:09:28.064Z,10.38
2022-12-03T11:11:03.367Z,7.75
2022-12-03T11:12:37.038Z,7.28
2022-12-03T11:14:14.740Z,9.45
2022-12-03T11:15:51.675Z,10.63
2022-12-03T11:17:49.225Z,9.18
2022-12-03T11:19:44.959Z,8.00
2022-12-03T11:21:19.898Z,11.32
2022-12-03T11:22:54.261Z,13.23
2022-12-03T11:24:27.557Z,14.38
2022-12-03T11:26:01.343Z,19.30
2022-12-03T11:27:36.289Z,17.42
2022-12-03T11:29:15.537Z,15.02
2022-12-03T11:31:01.467Z,11.45
2022-12-03T11:33:04.556Z,10.10
2022-12-03T11:34:42.396Z,10.88
2022-12-03T11:36:36.538Z,10.07
2022-12-03T11:38:52.998Z,7.88
2022-12-03T11:40:33.571Z,7.43
2022-12-03T11:42:38.256Z,7.85
2022-12-03T11:44:30.652Z,9.63
2022-12-03T11:46:11.056Z,9.70
2022-12-03T11:47:46.729Z,10.23
2022-12-03T11:49:29.888Z,8.55
2022-12-03T11:51:03.336Z,10.07
2022-12-03T11:52:46.465Z,9.60
2022-12-03T11:54:23.160Z,10.18
2022-12-03T11:56:09.170Z,15.13
2022-12-03T11:57:43.632Z,12.32
2022-12-03T11:59:20.221Z,10.93
2022-12-03T12:00:56.006Z,10.38
2022-12-03T12:02:32.075Z,11.25
2022-12-03T12:04:06.112Z,11.65
2022-12-03T12:05:43.052Z,11.57
2022-12-03T12:07:37.459Z,11.88
2022-12-03T12:09:12.568Z,9.48
2022-12-03T12:10:50.362Z,9.30
2022-12-03T12:12:31.051Z,8.63
2022-12-03T12:14:06.154Z,10.32
2022-12-03T12:15:45.399Z,9.57
2022-12-03T12:17:37.201Z,9.95
2022-12-03T12:19:54.023Z,10.13
2022-12-03T12:21:41.516Z,12.00
2022-12-03T12:23:30.194Z,11.20
2022-12-03T12:25:23.017Z,10.43
2022-12-03T12:26:57.072Z,10.88
2022-12-03T12:28:30.682Z,13.48
2022-12-03T12:30:08.472Z,13.65
2022-12-03T12:31:42.048Z,11.35
2022-12-03T12:33:24.304Z,9.63
2022-12-03T12:35:03.276Z,9.50
2022-12-03T12:36:36.619Z,8.18
2022-12-03T12:38:17.710Z,8.45
2022-12-03T12:39:55.686Z,9.88
2022-12-03T12:41:30.800Z,9.45
2022-12-03T12:43:14.209Z,10.75
2022-12-03T12:45:02.805Z,12.88
2022-12-03T12:46:53.464Z,14.13
2022-12-03T12:48:31.156Z,20.27
2022-12-03T12:50:10.613Z,13.07
2022-12-03T12:51:47.008Z,11.15
2022-12-03T12:53:24.934Z,9.63
2022-12-03T12:55:03.061Z,26.25
2022-12-03T12:56:42.372Z,19.52
2022-12-03T12:58:19.865Z,11.65
2022-12-03T12:59:55.064Z,11.23
2022-12-03T13:01:31.085Z,11.43
2022-12-03T13:03:06.196Z,12.65
2022-12-03T13:04:42.648Z,10.55
2022-12-03T13:06:17.579Z,13.30
2022-12-03T13:07:53.768Z,14.75
2022-12-03T13:09:28.574Z,10.15
2022-12-03T13:11:03.777Z,13.52
2022-12-03T13:12:39.941Z,7.57
2022-12-03T13:14:19.636Z,9.65
2022-12-03T13:15:58.862Z,10.52
2022-12-03T13:17:32.537Z,16.55
2022-12-03T13:19:21.462Z,15.40
2022-12-03T13:20:55.269Z,14.27
2022-12-03T13:22:29.559Z,15.73
2022-12-03T13:24:03.470Z,11.90
2022-12-03T13:26:00.287Z,11.13
2022-12-03T13:27:32.791Z,9.35
2022-12-03T13:29:15.318Z,10.93
2022-12-03T13:30:49.456Z,11.77
2022-12-03T13:32:29.265Z,11.15
2022-12-03T13:34:03.414Z,15.35
2022-12-03T13:35:39.594Z,11.48
2022-12-03T13:37:15.478Z,11.43
2022-12-03T13:38:49.301Z,11.68
2022-12-03T13:40:28.419Z,12.95
2022-12-03T13:42:33.866Z,11.88
2022-12-03T13:44:23.262Z,12.07
2022-12-03T13:45:56.732Z,16.25
2022-12-03T13:47:30.222Z,31.35
2022-12-03T13:49:03.680Z,18.77
2022-12-03T13:50:38.681Z,16.55
2022-12-03T13:52:17.355Z,13.50
2022-12-03T13:53:50.693Z,15.70
2022-12-03T13:55:27.126Z,14.98
2022-12-03T13:57:02.732Z,14.65
2022-12-03T13:58:36.219Z,18.80
2022-12-03T14:00:14.593Z,18.45
2022-12-03T14:01:47.791Z,17.73
2022-12-03T14:03:21.260Z,13.95
2022-12-03T14:05:00.006Z,9.45
2022-12-03T14:06:34.410Z,10.27
2022-12-03T14:08:07.741Z,10.43
2022-12-03T14:09:46.115Z,11.48
2022-12-03T14:11:33.859Z,13.35
2022-12-03T14:13:07.094Z,15.07
2022-12-03T14:14:40.317Z,15.80
2022-12-03T14:16:18.594Z,12.65
2022-12-03T14:17:52.995Z,12.85
2022-12-03T14:19:26.233Z,20.67
2022-12-03T14:20:59.431Z,19.08
2022-12-03T14:22:32.790Z,12.27
2022-12-03T14:24:07.384Z,17.00
2022-12-03T14:25:41.544Z,14.75
2022-12-03T14:27:16.290Z,11.38
2022-12-03T14:28:49.596Z,22.00
2022-12-03T14:30:23.125Z,21.23
2022-12-03T14:31:57.939Z,16.15
2022-12-03T14:33:31.173Z,18.83
2022-12-03T14:35:09.706Z,11.00
2022-12-03T14:36:44.383Z,11.20
2022-12-03T14:38:17.668Z,10.48
2022-12-03T14:39:53.591Z,10.80
2022-12-03T14:41:44.594Z,21.20
2022-12-03T14:43:18.578Z,19.80
2022-12-03T14:44:53.383Z,18.05
2022-12-03T14:46:27.397Z,17.40
2022-12-03T14:48:02.111Z,17.55
2022-12-03T14:49:36.024Z,14.27
2022-12-03T14:51:09.190Z,13.00
2022-12-03T14:52:43.772Z,18.73
2022-12-03T14:54:17.108Z,21.13
2022-12-03T14:55:51.010Z,20.33
2022-12-03T14:57:24.443Z,17.95
2022-12-03T14:58:57.710Z,11.07
2022-12-03T15:00:31.029Z,17.75
2022-12-03T15:02:04.681Z,16.48
2022-12-03T15:03:39.336Z,20.13
2022-12-03T15:05:12.562Z,21.77
2022-12-03T15:06:46.390Z,22.90
2022-12-03T15:08:19.777Z,17.10
2022-12-03T15:09:53.503Z,15.95
2022-12-03T15:11:27.132Z,19.58
2022-12-03T15:13:00.359Z,13.25
2022-12-03T15:14:33.842Z,12.15
2022-12-03T15:16:07.692Z,14.02
2022-12-03T15:17:41.855Z,10.52
2022-12-03T15:19:16.457Z,8.63
2022-12-03T15:20:50.514Z,8.68
2022-12-03T15:22:23.785Z,8.88
2022-12-03T15:23:57.087Z,9.10
2022-12-03T15:25:30.347Z,11.32
2022-12-03T15:27:09.852Z,12.07
2022-12-03T15:28:48.090Z,12.32
2022-12-03T15:30:21.965Z,11.77
2022-12-03T15:31:56.222Z,12.23
2022-12-03T15:33:32.190Z,14.00
2022-12-03T15:35:10.452Z,13.20
2022-12-03T15:36:43.838Z,15.85
2022-12-03T15:38:17.046Z,13.35
2022-12-03T15:39:50.500Z,158.35
2022-12-03T15:41:24.582Z,181.35
2022-12-03T15:42:57.859Z,19.40
2022-12-03T15:44:31.057Z,19.20
2022-12-03T15:46:04.619Z,18.42
2022-12-03T15:47:37.972Z,14.10
2022-12-03T15:49:11.148Z,12.55
2022-12-03T15:50:45.930Z,16.25
2022-12-03T15:52:19.453Z,16.65
2022-12-03T15:53:53.025Z,16.35
2022-12-03T15:55:26.322Z,15.23
2022-12-03T15:57:00.092Z,14.20
2022-12-03T15:58:33.837Z,16.08
2022-12-03T16:00:08.399Z,19.25
2022-12-03T16:01:47.207Z,19.88
2022-12-03T16:03:21.222Z,20.83
2022-12-03T16:04:55.326Z,22.15
2022-12-03T16:06:30.516Z,22.52
2022-12-03T16:08:03.898Z,25.50
2022-12-03T16:09:37.196Z,23.23
2022-12-03T16:11:10.934Z,23.13
2022-12-03T16:12:44.069Z,22.45
2022-12-03T16:14:17.427Z,21.75
2022-12-03T16:15:50.657Z,20.00
2022-12-03T16:17:24.327Z,23.05
2022-12-03T16:18:57.771Z,21.75
2022-12-03T16:20:31.217Z,45.67
2022-12-03T16:22:05.891Z,78.82
2022-12-03T16:23:39.237Z,28.38
2022-12-03T16:25:12.435Z,23.08
2022-12-03T16:26:47.027Z,23.58
2022-12-03T16:28:20.269Z,20.50
2022-12-03T16:29:54.438Z,24.10
2022-12-03T16:31:28.337Z,22.35
2022-12-03T16:33:01.527Z,12.57
2022-12-03T16:34:35.599Z,17.60
2022-12-03T16:36:10.462Z,23.45
2022-12-03T16:37:45.019Z,35.60
2022-12-03T16:39:19.150Z,20.00
2022-12-03T16:41:09.575Z,21.55
2022-12-03T16:42:47.242Z,16.17
2022-12-03T16:44:32.771Z,14.57
2022-12-03T16:46:26.349Z,13.93
2022-12-03T16:48:00.299Z,12.73
2022-12-03T16:49:33.493Z,12.82
2022-12-03T16:51:06.949Z,14.70
2022-12-03T16:52:40.172Z,23.50
2022-12-03T16:54:15.367Z,14.90
2022-12-03T16:55:48.982Z,10.95
2022-12-03T16:57:22.698Z,9.63
2022-12-03T16:58:55.964Z,11.30
2022-12-03T17:00:29.814Z,12.95
2022-12-03T17:02:03.563Z,12.38
2022-12-03T17:03:36.981Z,16.45
2022-12-03T17:05:10.421Z,15.02
2022-12-03T17:06:43.994Z,18.13
2022-12-03T17:08:17.712Z,19.10
2022-12-03T17:09:53.019Z,21.45
2022-12-03T17:11:26.746Z,21.02
2022-12-03T17:13:09.424Z,19.65
2022-12-03T17:14:43.652Z,20.58
2022-12-03T17:16:17.061Z,25.42
2022-12-03T17:17:50.338Z,24.73
2022-12-03T17:19:23.772Z,28.33
2022-12-03T17:20:57.099Z,31.05
2022-12-03T17:22:30.304Z,33.03
2022-12-03T17:24:03.948Z,31.05
2022-12-03T17:25:38.864Z,24.73
2022-12-03T17:27:12.960Z,24.52
2022-12-03T17:28:47.045Z,23.73
2022-12-03T17:30:35.368Z,23.02
2022-12-03T17:32:09.643Z,24.55
2022-12-03T17:33:42.866Z,27.17
2022-12-03T17:35:16.178Z,27.60
2022-12-03T17:36:50.878Z,24.45
2022-12-03T17:38:37.287Z,26.38
2022-12-03T17:40:18.278Z,29.98
2022-12-03T17:41:55.221Z,17.67
2022-12-03T17:43:33.224Z,18.30
2022-12-03T17:45:08.242Z,22.35
2022-12-03T17:46:41.645Z,20.85
2022-12-03T17:48:15.846Z,19.98
2022-12-03T17:49:49.182Z,20.75
2022-12-03T17:51:25.255Z,18.77
2022-12-03T17:52:58.643Z,62.92
2022-12-03T17:54:55.263Z,50.53
2022-12-03T17:56:32.533Z,25.30
2022-12-03T17:58:07.798Z,18.85
2022-12-03T17:59:41.302Z,17.98
2022-12-03T18:01:14.704Z,16.15
2022-12-03T18:02:49.289Z,17.58
2022-12-03T18:04:22.514Z,22.05
2022-12-03T18:05:56.164Z,18.52
2022-12-03T18:07:29.891Z,19.73
2022-12-03T18:09:08.034Z,27.83
2022-12-03T18:10:41.648Z,31.40
2022-12-03T18:12:15.270Z,31.63
2022-12-03T18:13:50.044Z,29.05
2022-12-03T18:15:23.746Z,24.02
2022-12-03T18:16:57.077Z,31.02
2022-12-03T18:18:36.090Z,32.30
2022-12-03T18:20:09.960Z,19.05
2022-12-03T18:21:43.414Z,26.63
2022-12-03T18:23:16.831Z,16.20
2022-12-03T18:24:51.882Z,20.52
2022-12-03T18:26:26.345Z,23.83
2022-12-03T18:28:00.055Z,26.58
2022-12-03T18:29:34.884Z,23.83
2022-12-03T18:31:14.920Z,30.02
2022-12-03T18:32:49.876Z,24.48
2022-12-03T18:34:23.171Z,23.05
2022-12-03T18:35:58.588Z,22.38
2022-12-03T18:37:33.467Z,23.27
2022-12-03T18:39:09.596Z,19.88
2022-12-03T18:40:45.326Z,26.38
2022-12-03T18:42:20.494Z,45.85
2022-12-03T18:43:54.008Z,37.08
2022-12-03T18:45:28.812Z,33.13
2022-12-03T18:47:02.855Z,26.92
2022-12-03T18:48:36.654Z,28.65
2022-12-03T18:50:11.604Z,21.90
2022-12-03T18:51:45.643Z,19.45
2022-12-03T18:53:20.854Z,21.08
2022-12-03T18:54:55.465Z,24.67
2022-12-03T18:56:29.405Z,25.58
2022-12-03T18:58:02.815Z,22.90
2022-12-03T18:59:36.525Z,23.35
2022-12-03T19:01:17.688Z,24.23
2022-12-03T19:03:02.884Z,25.42
2022-12-03T19:04:37.037Z,24.38
2022-12-03T19:06:18.679Z,20.05
2022-12-03T19:07:55.662Z,18.55
2022-12-03T19:09:28.940Z,22.40
2022-12-03T19:11:04.877Z,23.92
2022-12-03T19:12:41.056Z,22.75
2022-12-03T19:14:14.412Z,25.50
2022-12-03T19:15:50.253Z,19.73
2022-12-03T19:17:30.607Z,19.63
2022-12-03T19:19:04.359Z,17.60
2022-12-03T19:20:41.358Z,18.15
2022-12-03T19:22:17.437Z,16.52
2022-12-03T19:25:56.804Z,20.52
2022-12-03T19:27:31.064Z,27.58
2022-12-03T19:29:05.108Z,21.35
2022-12-03T19:30:40.809Z,26.40
2022-12-03T19:32:14.025Z,27.17
2022-12-03T19:33:52.049Z,19.48
2022-12-03T19:35:25.584Z,17.95
2022-12-03T19:37:03.404Z,14.85
2022-12-03T19:38:37.133Z,21.38
2022-12-03T19:40:12.094Z,21.77
2022-12-03T19:41:45.549Z,23.40
2022-12-03T19:43:20.531Z,18.73
2022-12-03T19:44:54.410Z,21.23
2022-12-03T19:46:30.588Z,23.98
2022-12-03T19:48:04.366Z,24.00
2022-12-03T19:49:39.256Z,20.02
2022-12-03T19:51:33.681Z,19.75
2022-12-03T19:53:06.805Z,22.48
2022-12-03T19:54:40.530Z,20.52
2022-12-03T19:56:16.178Z,21.08
2022-12-03T19:57:49.787Z,18.52
2022-12-03T19:59:23.360Z,20.50
2022-12-03T20:00:56.656Z,22.08
2022-12-03T20:02:30.779Z,22.42
2022-12-03T20:04:07.257Z,24.20
2022-12-03T20:05:42.384Z,20.77
2022-12-03T20:07:15.810Z,20.48
2022-12-03T20:08:50.043Z,19.80
2022-12-03T20:10:24.859Z,15.27
2022-12-03T20:11:58.339Z,12.00
2022-12-03T20:13:36.320Z,10.00
2022-12-03T20:15:10.504Z,8.27
2022-12-03T20:16:44.374Z,7.88
2022-12-03T20:18:18.730Z,9.32
2022-12-03T20:19:54.730Z,10.07
2022-12-03T20:21:31.600Z,8.20
2022-12-03T20:23:07.131Z,7.40
2022-12-03T20:24:40.779Z,8.20
2022-12-03T20:26:16.050Z,7.75
2022-12-03T20:27:49.295Z,7.32
2022-12-03T20:29:24.218Z,12.43
2022-12-03T20:31:00.976Z,7.05
2022-12-03T20:32:42.004Z,8.40
2022-12-03T20:34:18.859Z,9.70
2022-12-03T20:35:53.454Z,9.18
2022-12-03T20:37:28.084Z,9.75
2022-12-03T20:39:03.425Z,10.20
2022-12-03T20:40:37.360Z,10.85
2022-12-03T20:42:11.699Z,12.25
2022-12-03T20:43:45.091Z,12.43
2022-12-03T20:45:18.614Z,15.82
2022-12-03T20:46:52.185Z,12.50
2022-12-03T20:48:25.380Z,8.05
2022-12-03T20:49:58.621Z,9.43
2022-12-03T20:51:32.580Z,13.00
2022-12-03T20:53:24.431Z,13.95
2022-12-03T20:54:58.827Z,13.18
2022-12-03T20:56:34.665Z,25.92
2022-12-03T20:58:08.732Z,16.98